Time;durP1;ratioP1;P1;durP2;ratioP2;P2;SDS_P1;SDS_P2;PMS_P1;PMS_P2;Temp;Humidity;BMP_temperature;BMP_pressure;BME280_temperature;BME280_humidity;BME280_pressure;Samples;Min_cycle;Max_cycle;Signal;HPM_P1;HPM_P2
2021/12/20 00:00:48;;;;;;;16.80;3.97;;;;;;;4.66;100.00;102665.13;5023144;28;20199;-71
2021/12/20 00:03:14;;;;;;;18.77;3.97;;;;;;;5.11;100.00;102729.91;5019644;28;20767;-71
2021/12/20 00:05:40;;;;;;;16.97;4.00;;;;;;;4.90;100.00;102716.44;5019512;28;20212;-71
2021/12/20 00:08:06;;;;;;;15.50;3.80;;;;;;;5.36;100.00;102781.28;5024436;28;21184;-71
2021/12/20 00:10:32;;;;;;;11.30;3.73;;;;;;;5.18;100.00;102764.91;5026244;28;20439;-71
2021/12/20 00:12:57;;;;;;;18.90;4.53;;;;;;;4.68;100.00;102690.59;5025072;28;20272;-71
2021/12/20 00:15:23;;;;;;;13.63;3.77;;;;;;;4.78;100.00;102704.06;5014616;28;20461;-71
2021/12/20 00:17:48;;;;;;;14.50;3.70;;;;;;;4.51;100.00;102704.28;5021091;28;20196;-71
2021/12/20 00:20:14;;;;;;;15.83;4.47;;;;;;;5.10;100.00;102777.91;5026386;28;20318;-70
2021/12/20 00:22:40;;;;;;;11.90;3.23;;;;;;;4.02;100.00;102644.13;5021618;28;20439;-71
2021/12/20 00:25:06;;;;;;;18.03;4.30;;;;;;;4.24;100.00;102683.28;5020431;28;20718;-70
2021/12/20 00:27:32;;;;;;;14.80;3.97;;;;;;;4.18;100.00;102679.25;5020731;28;20441;-71
2021/12/20 00:29:58;;;;;;;13.20;4.20;;;;;;;4.10;100.00;102672.81;5019330;28;20431;-70
2021/12/20 00:32:24;;;;;;;13.63;3.70;;;;;;;4.58;100.00;102715.34;5020779;28;20454;-71
2021/12/20 00:34:49;;;;;;;14.60;4.80;;;;;;;4.16;100.00;102672.34;5021520;28;20671;-71
2021/12/20 00:42:44;;;;;;;21.83;5.77;;;;;;;3.96;100.00;102725.09;5023369;28;20437;-71
2021/12/20 00:45:12;;;;;;;14.97;4.80;;;;;;;4.24;100.00;102747.88;5019549;28;20525;-69
2021/12/20 00:47:39;;;;;;;15.83;4.70;;;;;;;4.20;100.00;102754.38;5018842;28;20452;-71
2021/12/20 00:50:06;;;;;;;13.93;4.27;;;;;;;4.49;100.00;102746.09;5020019;28;20446;-71
2021/12/20 00:52:31;;;;;;;11.73;4.20;;;;;;;4.16;100.00;102736.94;5018147;28;20950;-71
2021/12/20 00:54:57;;;;;;;20.40;5.70;;;;;;;4.36;100.00;102754.09;5021783;28;20470;-71
2021/12/20 00:57:22;;;;;;;29.20;5.60;;;;;;;4.32;100.00;102735.84;5016551;28;20556;-71
2021/12/20 00:59:48;;;;;;;14.00;4.90;;;;;;;4.22;100.00;102706.44;5026357;28;20649;-73
2021/12/20 01:02:13;;;;;;;11.50;4.40;;;;;;;4.47;100.00;102762.16;5024377;28;20337;-73
2021/12/20 01:04:39;;;;;;;16.97;5.07;;;;;;;3.97;100.00;102715.34;5027317;28;20208;-73
2021/12/20 01:07:04;;;;;;;13.00;4.67;;;;;;;4.02;100.00;102698.13;5020785;28;20188;-73
2021/12/20 01:09:30;;;;;;;19.87;5.57;;;;;;;4.33;100.00;102745.50;5021621;28;20841;-73
2021/12/20 01:12:02;;;;;;;16.00;5.30;;;;;;;4.27;100.00;102773.38;5022365;28;20270;-73
2021/12/20 01:14:30;;;;;;;11.30;4.30;;;;;;;3.83;100.00;102801.25;5020297;28;20324;-73
2021/12/20 01:17:02;;;;;;;15.63;4.67;;;;;;;3.38;100.00;102729.16;5017804;28;20937;-73
2021/12/20 01:19:27;;;;;;;13.70;4.90;;;;;;;3.64;100.00;102745.94;5020317;28;20462;-73
2021/12/20 01:21:53;;;;;;;15.50;4.97;;;;;;;3.54;100.00;102700.63;5023625;28;20985;-73
2021/12/20 01:24:18;;;;;;;13.53;4.20;;;;;;;3.00;100.00;102625.75;5018912;28;20313;-73
2021/12/20 01:26:43;;;;;;;12.43;4.70;;;;;;;3.45;100.00;102703.09;5018679;28;20240;-73
2021/12/20 01:29:09;;;;;;;16.57;5.00;;;;;;;3.66;100.00;102700.72;5018626;28;20274;-73
2021/12/20 01:31:34;;;;;;;13.00;4.33;;;;;;;3.20;100.00;102677.41;5019798;28;20803;-73
2021/12/20 01:33:59;;;;;;;13.03;3.60;;;;;;;3.25;100.00;102693.84;5015023;28;20210;-73
2021/12/20 01:36:25;;;;;;;11.43;3.30;;;;;;;2.70;100.00;102593.28;5021371;28;20628;-73
2021/12/20 01:38:50;;;;;;;13.60;4.90;;;;;;;3.42;100.00;102706.81;5020721;28;20624;-73
2021/12/20 01:41:15;;;;;;;14.70;3.80;;;;;;;3.70;100.00;102769.38;5015858;28;20235;-72
2021/12/20 01:43:41;;;;;;;12.97;4.33;;;;;;;3.34;100.00;102733.00;5021551;28;20223;-72
2021/12/20 01:46:07;;;;;;;14.50;4.20;;;;;;;3.64;100.00;102791.06;5020712;28;20212;-72
2021/12/20 01:48:33;;;;;;;16.33;4.07;;;;;;;2.78;100.00;102639.59;5017788;28;20283;-72
2021/12/20 01:53:33;;;;;;;15.20;4.37;;;;;;;3.30;100.00;102752.75;5021108;28;20399;-72
2021/12/20 01:55:59;;;;;;;12.37;3.40;;;;;;;3.83;100.00;102825.16;5025396;28;20431;-72
2021/12/20 01:58:26;;;;;;;12.13;3.70;;;;;;;3.63;100.00;102819.41;5024333;28;20457;-71
2021/12/20 02:01:03;;;;;;;15.10;3.80;;;;;;;2.99;100.00;102754.78;5023502;28;20857;-72
2021/12/20 02:03:30;;;;;;;12.20;3.50;;;;;;;3.05;100.00;102748.22;5016106;28;20457;-72
2021/12/20 02:05:58;;;;;;;13.30;3.57;;;;;;;3.08;100.00;102737.41;5019754;28;20478;-71
2021/12/20 02:08:28;;;;;;;13.17;3.67;;;;;;;3.24;100.00;102792.91;5020344;28;20439;-71
2021/12/20 02:10:59;;;;;;;12.33;3.80;;;;;;;3.38;100.00;102837.94;5019100;28;20464;-72
2021/12/20 02:13:28;;;;;;;13.60;3.20;;;;;;;3.20;100.00;102767.56;5023313;28;20459;-72
2021/12/20 02:15:55;;;;;;;5.10;2.30;;;;;;;3.58;100.00;102834.78;5016946;28;20442;-72
2021/12/20 02:18:21;;;;;;;14.03;4.23;;;;;;;2.87;100.00;102737.91;5020827;28;20479;-72
2021/12/20 02:20:47;;;;;;;12.60;3.17;;;;;;;3.36;100.00;102846.00;5022149;28;20549;-72
2021/12/20 02:23:12;;;;;;;12.20;3.13;;;;;;;2.72;100.00;102738.94;5024207;28;20437;-72
2021/12/20 02:25:38;;;;;;;16.73;3.50;;;;;;;3.44;100.00;102844.63;5020516;28;21210;-72
2021/12/20 02:28:10;;;;;;;13.13;3.57;;;;;;;2.91;100.00;102738.53;5025973;28;20914;-72
2021/12/20 02:38:35;;;;;;;15.03;3.30;;;;;;;2.67;100.00;102739.22;5020988;28;20465;-71
2021/12/20 02:41:06;;;;;;;9.90;2.40;;;;;;;3.17;100.00;102800.44;5021888;28;20437;-71
2021/12/20 02:43:36;;;;;;;11.17;2.87;;;;;;;3.11;100.00;102792.91;5021692;28;20463;-72
2021/12/20 02:46:05;;;;;;;8.00;3.37;;;;;;;3.31;100.00;102805.66;5020260;28;21037;-72
2021/12/20 02:48:30;;;;;;;10.10;2.77;;;;;;;2.99;100.00;102727.44;5020499;28;20575;-72
2021/12/20 02:50:57;;;;;;;11.40;3.20;;;;;;;3.42;100.00;102806.75;5023519;28;20450;-72
2021/12/20 02:53:23;;;;;;;13.33;2.80;;;;;;;3.22;100.00;102818.72;5019720;28;20275;-71
2021/12/20 02:55:48;;;;;;;14.17;3.23;;;;;;;2.93;100.00;102817.03;5019687;28;21099;-72
2021/12/20 02:58:14;;;;;;;12.60;3.13;;;;;;;2.48;100.00;102739.56;5026270;28;20445;-71
2021/12/20 03:00:39;;;;;;;13.60;3.43;;;;;;;3.09;100.00;102829.25;5020861;28;21716;-72
2021/12/20 03:03:07;;;;;;;18.00;3.90;;;;;;;2.94;100.00;102799.31;5028575;28;20188;-72
2021/12/20 03:05:32;;;;;;;11.60;2.77;;;;;;;2.45;100.00;102725.66;5022131;28;20204;-72
2021/12/20 03:07:58;;;;;;;11.43;3.13;;;;;;;2.17;100.00;102714.22;5023587;28;20464;-72
2021/12/20 03:10:25;;;;;;;12.80;2.97;;;;;;;2.52;100.00;102803.81;5025048;28;20202;-72
2021/12/20 03:12:51;;;;;;;10.77;2.80;;;;;;;2.49;100.00;102811.94;5032241;28;20181;-72
2021/12/20 03:15:22;;;;;;;16.47;3.50;;;;;;;2.38;100.00;102730.53;5019981;28;20994;-72
2021/12/20 03:17:48;;;;;;;10.33;3.20;;;;;;;2.66;100.00;102765.81;5020088;28;20437;-71
2021/12/20 03:20:14;;;;;;;14.70;3.20;;;;;;;2.98;100.00;102815.84;5025358;28;20429;-71
2021/12/20 03:22:41;;;;;;;14.70;3.07;;;;;;;2.77;100.00;102759.81;5022977;28;20187;-72
2021/12/20 03:25:07;;;;;;;11.27;2.67;;;;;;;2.86;100.00;102823.66;5018423;28;20992;-71
2021/12/20 03:27:34;;;;;;;14.07;3.77;;;;;;;2.13;100.00;102747.13;5022891;28;20522;-72
2021/12/20 03:29:59;;;;;;;10.93;2.70;;;;;;;2.51;100.00;102790.66;5020808;28;20438;-72
2021/12/20 03:32:24;;;;;;;12.10;3.07;;;;;;;2.49;100.00;102783.66;5020657;28;20450;-71
2021/12/20 03:34:50;;;;;;;8.03;2.20;;;;;;;2.00;100.00;102722.38;5024513;28;20282;-72
2021/12/20 03:37:15;;;;;;;10.03;2.93;;;;;;;2.04;100.00;102713.28;5024962;28;20184;-73
2021/12/20 03:39:41;;;;;;;12.03;2.70;;;;;;;2.24;100.00;102720.81;5020135;28;20212;-72
2021/12/20 03:42:06;;;;;;;10.87;2.80;;;;;;;2.42;100.00;102784.13;5022425;28;20215;-72
2021/12/20 03:44:35;;;;;;;8.17;2.80;;;;;;;2.30;100.00;102738.09;5024707;28;20212;-71
2021/12/20 03:47:00;;;;;;;9.77;3.40;;;;;;;2.48;100.00;102758.09;5026098;28;20180;-71
2021/12/20 03:49:26;;;;;;;12.37;3.83;;;;;;;2.47;100.00;102788.19;5022303;28;20570;-71
2021/12/20 03:51:51;;;;;;;9.73;3.50;;;;;;;2.54;100.00;102780.69;5024803;28;20237;-71
2021/12/20 03:54:16;;;;;;;11.83;3.67;;;;;;;2.54;100.00;102786.00;5020433;28;20243;-71
2021/12/20 03:56:42;;;;;;;19.93;6.43;;;;;;;2.54;100.00;102852.22;5015235;28;20200;-71
2021/12/20 03:59:07;;;;;;;18.60;5.70;;;;;;;1.94;100.00;102763.31;5023860;28;20191;-71
2021/12/20 04:01:33;;;;;;;10.90;4.20;;;;;;;2.61;100.00;102836.81;5021694;28;20670;-71
2021/12/20 04:04:00;;;;;;;17.83;5.07;;;;;;;2.33;100.00;102819.16;5023662;28;20200;-71
2021/12/20 04:06:26;;;;;;;20.33;6.40;;;;;;;2.26;100.00;102808.09;5023255;28;20834;-71
2021/12/20 04:08:52;;;;;;;24.13;6.47;;;;;;;1.81;100.00;102698.84;5024465;28;20446;-71
2021/12/20 04:11:17;;;;;;;12.53;4.40;;;;;;;2.54;100.00;102809.84;5023021;28;21026;-71
2021/12/20 04:13:43;;;;;;;12.93;6.00;;;;;;;2.00;100.00;102755.00;5022765;28;20206;-71
2021/12/20 04:16:08;;;;;;;13.97;5.27;;;;;;;2.57;100.00;102848.53;5026684;28;20190;-71
2021/12/20 04:18:34;;;;;;;16.37;5.50;;;;;;;2.38;100.00;102828.50;5023739;28;20187;-71
2021/12/20 04:20:59;;;;;;;14.83;5.30;;;;;;;1.87;100.00;102716.16;5022699;28;20691;-71
2021/12/20 04:23:25;;;;;;;13.67;4.87;;;;;;;1.25;100.00;102751.63;5020547;28;20211;-71
2021/12/20 04:25:50;;;;;;;10.00;4.17;;;;;;;1.24;100.00;102749.91;5021548;28;20211;-71
2021/12/20 04:28:16;;;;;;;11.80;4.60;;;;;;;1.37;100.00;102718.31;5023589;28;20187;-71
2021/12/20 04:30:41;;;;;;;14.30;4.20;;;;;;;2.06;100.00;102845.56;5019508;28;20182;-70
2021/12/20 04:33:07;;;;;;;12.07;4.50;;;;;;;1.69;100.00;102839.84;5023778;28;20275;-71
2021/12/20 04:35:33;;;;;;;12.37;4.87;;;;;;;1.10;100.00;102769.25;5022905;28;20180;-71
2021/12/20 04:38:00;;;;;;;17.47;4.43;;;;;;;1.65;100.00;102848.88;5018273;28;20937;-71
2021/12/20 04:40:27;;;;;;;15.77;4.80;;;;;;;1.99;100.00;102853.84;5021046;28;20279;-71
2021/12/20 04:42:58;;;;;;;16.87;4.40;;;;;;;1.92;100.00;102802.25;5020575;28;20442;-71
2021/12/20 04:45:26;;;;;;;13.37;3.63;;;;;;;2.40;100.00;102846.94;5015175;28;20535;-71
2021/12/20 04:47:52;;;;;;;12.50;3.40;;;;;;;1.72;100.00;102763.78;5021887;28;20431;-71
2021/12/20 04:50:18;;;;;;;15.33;3.67;;;;;;;1.89;100.00;102807.72;5020927;28;20445;-71
2021/12/20 04:52:44;;;;;;;16.43;4.13;;;;;;;1.13;100.00;102731.22;5021615;28;20443;-71
2021/12/20 04:55:12;;;;;;;11.40;3.93;;;;;;;1.76;100.00;102812.06;5024443;28;22633;-71
2021/12/20 04:57:38;;;;;;;12.40;4.00;;;;;;;2.14;100.00;102835.31;5019357;28;21149;-71
2021/12/20 05:00:09;;;;;;;8.17;2.90;;;;;;;2.04;100.00;102798.00;5017934;28;20495;-71
2021/12/20 05:02:35;;;;;;;12.80;3.07;;;;;;;2.25;100.00;102843.47;5018959;28;20495;-71
2021/12/20 05:05:00;;;;;;;11.03;3.27;;;;;;;1.33;100.00;102700.91;5020020;28;21162;-71
2021/12/20 05:07:27;;;;;;;14.40;4.20;;;;;;;1.73;100.00;102769.91;5019705;28;20562;-71
2021/12/20 05:09:58;;;;;;;14.20;3.63;;;;;;;1.91;100.00;102819.09;5018762;28;20192;-71
2021/12/20 05:12:23;;;;;;;11.60;4.10;;;;;;;1.25;100.00;102756.06;5018653;28;20596;-71
2021/12/20 05:14:49;;;;;;;11.97;4.27;;;;;;;1.26;100.00;102737.47;5022404;28;21039;-72
2021/12/20 05:17:14;;;;;;;15.77;3.97;;;;;;;1.07;100.00;102732.44;5019446;28;20246;-71
2021/12/20 05:19:42;;;;;;;11.80;3.60;;;;;;;1.91;100.00;102844.66;5013245;28;20298;-71
2021/12/20 05:22:08;;;;;;;11.63;3.57;;;;;;;1.83;100.00;102794.88;5019877;28;20183;-71
2021/12/20 05:24:33;;;;;;;13.83;3.47;;;;;;;1.72;100.00;102765.56;5020816;28;20455;-71
2021/12/20 05:26:59;;;;;;;16.50;4.03;;;;;;;2.01;100.00;102820.19;5020883;28;20537;-71
2021/12/20 05:29:25;;;;;;;11.37;3.37;;;;;;;1.71;100.00;102764.72;5017739;28;21522;-72
2021/12/20 05:31:52;;;;;;;12.57;3.23;;;;;;;2.16;100.00;102847.53;5012376;28;20435;-71
2021/12/20 05:34:18;;;;;;;16.00;4.10;;;;;;;1.78;100.00;102775.78;5019341;28;20458;-72
2021/12/20 05:36:43;;;;;;;10.00;3.63;;;;;;;1.32;100.00;102723.88;5014598;28;20486;-72
2021/12/20 05:39:09;;;;;;;15.93;4.67;;;;;;;1.57;100.00;102759.44;5020041;28;20203;-72
2021/12/20 05:41:34;;;;;;;15.80;3.90;;;;;;;1.76;100.00;102794.38;5013092;28;20742;-71
2021/12/20 05:43:59;;;;;;;16.80;3.80;;;;;;;2.10;100.00;102797.59;5018973;28;20208;-72
2021/12/20 05:46:25;;;;;;;11.67;4.23;;;;;;;1.59;100.00;102815.72;5019924;28;20204;-71
2021/12/20 05:48:50;;;;;;;13.23;3.73;;;;;;;1.49;100.00;102823.34;5025723;28;20794;-72
2021/12/20 05:51:16;;;;;;;16.57;4.40;;;;;;;1.58;100.00;102799.00;5020233;28;20267;-70
2021/12/20 05:53:41;;;;;;;18.83;6.50;;;;;;;1.96;100.00;102842.59;5018152;28;20208;-71
2021/12/20 05:56:06;;;;;;;20.50;8.37;;;;;;;1.64;100.00;102820.75;5021991;28;20188;-70
2021/12/20 05:58:32;;;;;;;13.57;7.50;;;;;;;1.63;100.00;102834.91;5025734;28;20187;-71
2021/12/20 06:00:57;;;;;;;16.63;7.53;;;;;;;1.81;100.00;102881.44;5024823;28;20267;-71
2021/12/20 06:03:23;;;;;;;17.00;6.37;;;;;;;1.72;100.00;102834.38;5017899;28;20317;-71
2021/12/20 06:05:48;;;;;;;19.60;7.03;;;;;;;1.96;100.00;102853.19;5018406;28;20285;-71
2021/12/20 06:08:13;;;;;;;16.83;5.60;;;;;;;2.32;100.00;102865.97;5022634;28;20220;-71
2021/12/20 06:10:39;;;;;;;17.50;8.10;;;;;;;2.23;100.00;102853.31;5022000;28;20184;-72
2021/12/20 06:13:05;;;;;;;18.07;5.60;;;;;;;1.43;100.00;102757.63;5018261;28;20187;-71
2021/12/20 06:15:31;;;;;;;15.83;4.97;;;;;;;1.97;100.00;102860.22;5020110;28;20212;-71
2021/12/20 06:17:57;;;;;;;20.43;6.30;;;;;;;2.16;100.00;102870.50;5021519;28;20923;-71
2021/12/20 06:20:23;;;;;;;18.80;5.47;;;;;;;1.99;100.00;102856.50;5024255;28;20480;-71
2021/12/20 06:22:48;;;;;;;10.83;5.07;;;;;;;1.47;100.00;102846.38;5019115;28;20595;-71
2021/12/20 06:25:14;;;;;;;14.60;5.57;;;;;;;1.80;100.00;102883.22;5015749;28;20512;-71
2021/12/20 06:27:41;;;;;;;12.60;5.60;;;;;;;0.70;100.00;102743.44;5018332;28;20210;-71
2021/12/20 06:30:10;;;;;;;18.17;5.10;;;;;;;1.62;100.00;102883.47;5010641;28;20511;-71
2021/12/20 06:32:38;;;;;;;10.70;3.63;;;;;;;1.63;100.00;102869.31;5017880;28;20459;-71
2021/12/20 06:35:05;;;;;;;8.60;3.20;;;;;;;1.10;100.00;102753.41;5028460;28;20838;-72
2021/12/20 06:37:32;;;;;;;5.27;2.80;;;;;;;1.04;100.00;102793.41;5019700;28;20441;-72
2021/12/20 06:39:57;;;;;;;3.03;2.57;;;;;;;1.32;100.00;102848.13;5024812;28;20942;-72
2021/12/20 06:42:23;;;;;;;7.17;3.13;;;;;;;1.70;100.00;102907.66;5029305;28;20468;-72
2021/12/20 06:44:48;;;;;;;5.80;3.27;;;;;;;1.56;100.00;102861.75;5027061;28;20557;-72
2021/12/20 06:47:14;;;;;;;6.13;3.30;;;;;;;1.74;100.00;102903.91;5021121;28;20231;-72
2021/12/20 06:49:40;;;;;;;6.60;3.87;;;;;;;0.12;100.00;102668.38;5023933;28;20644;-72
2021/12/20 06:52:05;;;;;;;6.30;3.53;;;;;;;-0.60;100.00;102580.91;5027807;28;20435;-71
2021/12/20 06:54:31;;;;;;;6.63;3.63;;;;;;;1.55;100.00;102897.03;5018640;28;20913;-72
2021/12/20 06:56:56;;;;;;;8.87;4.03;;;;;;;1.53;100.00;102919.22;5022998;28;20621;-72
2021/12/20 06:59:22;;;;;;;8.37;3.47;;;;;;;1.28;100.00;102890.72;5016483;28;20546;-72
2021/12/20 07:01:48;;;;;;;10.23;4.67;;;;;;;1.35;100.00;102911.41;5007300;28;20179;-72
2021/12/20 07:04:15;;;;;;;11.20;5.30;;;;;;;1.48;100.00;102916.88;5010716;28;20210;-72
2021/12/20 07:06:41;;;;;;;7.90;3.23;;;;;;;0.95;100.00;102791.25;5024471;28;20495;-71
2021/12/20 07:09:07;;;;;;;5.07;2.93;;;;;;;1.78;100.00;102921.31;5026804;28;20446;-71
2021/12/20 07:11:33;;;;;;;8.23;3.80;;;;;;;1.64;100.00;102916.81;5018012;28;21797;-72
2021/12/20 07:13:58;;;;;;;7.60;3.30;;;;;;;1.26;100.00;102852.94;5022363;28;20552;-71
2021/12/20 07:16:23;;;;;;;10.10;4.63;;;;;;;1.31;100.00;102853.53;5019025;28;20217;-72
2021/12/20 07:18:49;;;;;;;7.17;3.70;;;;;;;0.93;100.00;102830.16;5018059;28;20188;-71
2021/12/20 07:21:15;;;;;;;6.93;3.50;;;;;;;1.42;100.00;102901.38;5023192;28;20449;-71
2021/12/20 07:23:40;;;;;;;7.13;4.13;;;;;;;0.96;100.00;102832.63;5014237;28;21174;-72
2021/12/20 07:26:10;;;;;;;10.73;4.27;;;;;;;1.45;100.00;102908.28;5023341;28;20294;-72
2021/12/20 07:28:36;;;;;;;10.63;3.67;;;;;;;1.34;100.00;102888.56;5019621;28;20214;-71
2021/12/20 07:31:02;;;;;;;7.43;3.87;;;;;;;1.79;100.00;102933.59;5011510;28;20857;-71
2021/12/20 07:33:27;;;;;;;8.63;3.83;;;;;;;1.34;100.00;102908.88;5017793;28;20303;-71
2021/12/20 07:35:53;;;;;;;7.83;3.50;;;;;;;1.08;100.00;102868.06;5022201;28;20187;-72
2021/12/20 07:38:19;;;;;;;9.10;3.80;;;;;;;1.42;100.00;102956.91;5018413;28;20191;-72
2021/12/20 07:40:46;;;;;;;8.30;3.70;;;;;;;1.34;100.00;102932.69;5021175;28;20182;-72
2021/12/20 07:43:14;;;;;;;7.73;3.73;;;;;;;0.22;100.00;102844.59;5019185;28;20986;-72
2021/12/20 07:45:40;;;;;;;9.37;3.60;;;;;;;1.36;100.00;102928.16;5020158;28;20501;-72
2021/12/20 07:48:05;;;;;;;7.23;3.83;;;;;;;1.48;100.00;102947.75;5025142;28;20545;-72
2021/12/20 07:50:31;;;;;;;8.87;4.17;;;;;;;1.00;100.00;102873.78;5018275;28;20799;-72
2021/12/20 07:52:57;;;;;;;5.63;3.50;;;;;;;1.02;100.00;102900.97;5023312;28;20438;-72
2021/12/20 07:55:23;;;;;;;4.07;3.53;;;;;;;1.10;100.00;102906.69;5025232;28;20914;-72
2021/12/20 07:57:50;;;;;;;8.67;3.20;;;;;;;1.31;100.00;102952.22;5024645;28;20818;-72
2021/12/20 08:00:16;;;;;;;5.07;3.33;;;;;;;0.59;100.00;102928.91;5021337;28;20237;-72
2021/12/20 08:02:41;;;;;;;4.60;2.93;;;;;;;0.92;100.00;102943.84;5016721;28;21172;-73
2021/12/20 08:05:14;;;;;;;3.80;2.50;;;;;;;1.35;100.00;102958.16;5020226;28;20239;-75
2021/12/20 08:07:40;;;;;;;5.10;2.40;;;;;;;0.70;100.00;102847.31;5036210;28;20686;-73
2021/12/20 08:10:06;;;;;;;2.40;1.80;;;;;;;0.64;100.00;102842.38;5020042;28;20439;-73
2021/12/20 08:12:32;;;;;;;3.30;2.03;;;;;;;0.97;100.00;102945.31;5021558;28;20431;-73
2021/12/20 08:14:57;;;;;;;3.20;2.10;;;;;;;1.22;100.00;102947.44;5017123;28;20451;-73
2021/12/20 08:17:22;;;;;;;4.07;1.80;;;;;;;0.78;100.00;102899.69;5017290;28;20183;-73
2021/12/20 08:19:48;;;;;;;2.00;1.80;;;;;;;0.85;100.00;102882.56;5022852;28;20183;-73
2021/12/20 08:22:13;;;;;;;3.93;1.60;;;;;;;0.61;100.00;102861.03;5033637;28;22106;-73
2021/12/20 08:24:39;;;;;;;3.60;1.93;;;;;;;1.26;100.00;102974.56;5024271;28;20931;-72
2021/12/20 08:27:04;;;;;;;1.70;1.60;;;;;;;0.99;100.00;102922.28;5021525;28;20192;-71
2021/12/20 08:29:29;;;;;;;2.13;1.50;;;;;;;1.25;100.00;102938.50;5007523;28;20855;-71
2021/12/20 08:32:01;;;;;;;2.10;1.90;;;;;;;0.28;100.00;102787.97;5020127;28;20198;-72
2021/12/20 08:34:27;;;;;;;5.97;1.57;;;;;;;0.91;100.00;102887.50;5018716;28;20223;-72
2021/12/20 08:36:52;;;;;;;1.80;1.70;;;;;;;1.19;100.00;102944.13;5018581;28;20847;-72
2021/12/20 08:39:19;;;;;;;2.13;1.53;;;;;;;1.54;100.00;102972.06;5019949;28;20473;-80
2021/12/20 08:41:45;;;;;;;2.20;2.00;;;;;;;0.94;100.00;102905.00;5022414;28;20176;-72
2021/12/20 08:44:10;;;;;;;2.43;2.00;;;;;;;0.99;100.00;102895.03;5012392;28;20984;-71
2021/12/20 08:46:36;;;;;;;4.40;2.87;;;;;;;1.16;100.00;102916.06;5018371;28;20977;-71
2021/12/20 08:49:01;;;;;;;3.33;2.43;;;;;;;1.23;100.00;102954.44;5018120;28;20188;-71
2021/12/20 08:51:27;;;;;;;6.73;3.17;;;;;;;0.44;100.00;102868.06;5023184;28;23807;-70
2021/12/20 08:53:52;;;;;;;4.90;2.87;;;;;;;0.75;100.00;102934.19;5018471;28;20365;-72
2021/12/20 08:56:19;;;;;;;5.50;3.33;;;;;;;1.34;100.00;102988.19;5011522;28;20176;-72
2021/12/20 08:58:45;;;;;;;6.80;2.93;;;;;;;1.16;100.00;102907.25;5027099;28;20225;-72
2021/12/20 09:01:11;;;;;;;7.63;3.10;;;;;;;2.01;100.00;102978.19;5015776;28;20527;-72
2021/12/20 09:03:36;;;;;;;12.07;3.27;;;;;;;2.15;100.00;102964.13;5012816;28;20477;-72
2021/12/20 09:06:02;;;;;;;9.03;4.10;;;;;;;1.54;100.00;102891.88;5018352;28;20204;-72
2021/12/20 09:08:28;;;;;;;6.37;3.80;;;;;;;1.19;100.00;102884.16;5013174;28;23561;-72
2021/12/20 09:10:54;;;;;;;4.87;3.50;;;;;;;1.52;100.00;102933.41;5019851;28;20222;-72
2021/12/20 09:13:20;;;;;;;11.70;5.80;;;;;;;1.89;100.00;102994.78;5020010;28;20439;-72
2021/12/20 09:15:45;;;;;;;13.47;7.67;;;;;;;1.99;100.00;102980.91;5016869;28;20183;-72
2021/12/20 09:18:11;;;;;;;19.07;10.83;;;;;;;2.06;100.00;102975.28;5015913;28;20196;-72
2021/12/20 09:20:37;;;;;;;21.77;10.60;;;;;;;2.33;100.00;102993.94;5017280;28;20181;-72
2021/12/20 09:23:05;;;;;;;15.33;8.67;;;;;;;2.35;100.00;102997.38;5018308;28;20383;-72
2021/12/20 09:25:34;;;;;;;12.80;7.10;;;;;;;1.82;100.00;102951.94;5018025;28;20554;-72
2021/12/20 09:28:00;;;;;;;15.27;8.10;;;;;;;2.16;100.00;102952.59;5022455;28;20541;-72
2021/12/20 09:30:28;;;;;;;18.23;8.70;;;;;;;1.70;100.00;102868.00;5010632;28;20438;-72
2021/12/20 09:32:54;;;;;;;16.07;8.87;;;;;;;2.70;100.00;103014.59;5017384;28;21295;-72
2021/12/20 09:35:20;;;;;;;16.97;9.40;;;;;;;2.08;100.00;102893.94;5015500;28;20462;-72
2021/12/20 09:37:49;;;;;;;15.23;9.10;;;;;;;2.88;100.00;102996.72;5018843;28;20188;-72
2021/12/20 09:40:15;;;;;;;20.07;9.93;;;;;;;2.79;100.00;102986.69;5023007;28;21267;-72
2021/12/20 09:42:49;;;;;;;19.97;10.97;;;;;;;2.79;100.00;102924.88;5024627;28;20460;-72
2021/12/20 09:45:23;;;;;;;16.17;9.70;;;;;;;2.55;100.00;102937.88;5012465;28;20462;-72
2021/12/20 09:47:50;;;;;;;17.00;9.40;;;;;;;2.96;100.00;103006.84;5021057;28;20559;-72
2021/12/20 09:50:17;;;;;;;21.73;10.40;;;;;;;3.10;100.00;103014.78;5014068;28;20676;-72
2021/12/20 09:52:43;;;;;;;22.13;11.57;;;;;;;2.89;100.00;102968.41;5013486;28;20470;-70
2021/12/20 09:55:10;;;;;;;22.17;10.30;;;;;;;3.30;100.00;103010.03;5009616;28;20462;-73
2021/12/20 09:57:37;;;;;;;15.93;8.93;;;;;;;3.53;100.00;102989.94;5023260;28;20542;-72
2021/12/20 10:00:07;;;;;;;14.50;6.93;;;;;;;3.74;100.00;103016.91;5022615;28;20450;-72
2021/12/20 10:02:32;;;;;;;11.67;6.67;;;;;;;3.50;100.00;102988.38;5016237;28;20438;-72
2021/12/20 10:04:57;;;;;;;14.57;7.50;;;;;;;3.47;100.00;102993.88;5015322;28;20660;-72
2021/12/20 10:07:25;;;;;;;14.80;6.00;;;;;;;3.54;100.00;102958.00;5020160;28;20455;-72
2021/12/20 10:09:51;;;;;;;14.50;6.60;;;;;;;4.23;100.00;103016.28;5009314;28;20238;-72
2021/12/20 10:12:24;;;;;;;10.47;5.07;;;;;;;4.12;100.00;103016.16;5003759;28;20446;-72
2021/12/20 10:15:04;;;;;;;12.30;5.23;;;;;;;3.98;100.00;103020.56;5010675;28;20473;-72
2021/12/20 10:17:50;;;;;;;9.30;4.70;;;;;;;3.89;100.00;102983.19;5007217;28;20848;-72
2021/12/20 10:20:29;;;;;;;13.60;4.60;;;;;;;4.78;100.00;103015.13;5011558;28;20448;-73
2021/12/20 10:23:10;;;;;;;14.57;4.97;;;;;;;4.47;100.00;102971.22;5009574;28;20504;-73
2021/12/20 10:25:36;;;;;;;11.13;4.10;;;;;;;4.75;100.00;103000.25;5004804;28;20467;-71
2021/12/20 10:28:07;;;;;;;9.20;3.93;;;;;;;5.15;100.00;103009.84;5002129;28;20540;-71
2021/12/20 10:30:37;;;;;;;13.40;3.90;;;;;;;5.31;100.00;103028.22;5007742;28;20454;-71
2021/12/20 10:33:04;;;;;;;15.03;4.20;;;;;;;4.81;100.00;102934.31;5014827;28;20450;-69
2021/12/20 10:35:37;;;;;;;13.93;4.60;;;;;;;5.00;100.00;103014.47;4998518;28;20496;-71
2021/12/20 10:38:07;;;;;;;13.80;4.40;;;;;;;4.53;100.00;102979.63;5008959;28;20528;-70
2021/12/20 10:40:34;;;;;;;10.23;3.70;;;;;;;4.96;100.00;103023.63;5006857;28;20448;-69
2021/12/20 10:43:04;;;;;;;9.67;3.90;;;;;;;4.97;100.00;102996.91;5013685;28;20462;-68
2021/12/20 10:45:30;;;;;;;11.93;4.00;;;;;;;5.27;100.00;102968.22;5017939;28;20484;-68
2021/12/20 10:48:08;;;;;;;10.43;3.60;;;;;;;5.38;100.00;103017.03;5016794;28;20846;-69
2021/12/20 10:50:42;;;;;;;12.30;4.20;;;;;;;5.48;100.00;103003.06;5013478;28;20179;-70
2021/12/20 10:53:17;;;;;;;10.17;3.70;;;;;;;5.76;100.00;103008.06;5015631;28;20464;-69
2021/12/20 10:55:49;;;;;;;9.33;3.77;;;;;;;5.77;100.00;103004.41;5021280;28;20507;-69
2021/12/20 10:58:32;;;;;;;14.07;4.30;;;;;;;5.70;100.00;103012.97;5012687;28;20446;-70
2021/12/20 11:01:15;;;;;;;11.13;4.10;;;;;;;5.28;100.00;102984.06;5010880;28;20522;-71
2021/12/20 11:03:43;;;;;;;12.20;4.40;;;;;;;4.83;100.00;102908.44;5006529;28;20508;-69
2021/12/20 11:09:05;;;;;;;9.87;3.67;;;;;;;5.49;100.00;103010.06;5005141;28;21275;-69
2021/12/20 11:11:35;;;;;;;13.30;3.77;;;;;;;5.80;100.00;102961.56;5014978;28;20532;-69
2021/12/20 11:14:02;;;;;;;10.97;2.97;;;;;;;6.13;100.00;102999.97;5012219;28;21088;-69
2021/12/20 11:16:33;;;;;;;9.67;2.73;;;;;;;6.25;100.00;102992.84;5018368;28;20503;-69
2021/12/20 11:19:10;;;;;;;6.80;2.20;;;;;;;6.28;100.00;102996.16;5012605;28;20447;-69
2021/12/20 11:21:40;;;;;;;11.73;2.50;;;;;;;5.99;100.00;102939.75;5016195;28;20528;-69
2021/12/20 11:24:15;;;;;;;6.40;2.57;;;;;;;6.17;100.00;102988.13;5017504;28;20473;-69
2021/12/20 11:26:41;;;;;;;11.50;2.90;;;;;;;6.17;100.00;102950.81;5014580;28;20481;-69
2021/12/20 11:29:08;;;;;;;9.47;2.37;;;;;;;6.25;100.00;102993.72;5016348;28;20465;-69
2021/12/20 11:31:33;;;;;;;7.03;3.10;;;;;;;6.12;100.00;102945.00;5011986;28;21010;-69
2021/12/20 11:34:02;;;;;;;8.40;2.73;;;;;;;6.71;100.00;102991.94;5024361;28;20568;-69
2021/12/20 11:36:28;;;;;;;12.03;2.43;;;;;;;6.43;100.00;102991.44;5022139;28;20361;-69